createdAt,value
2019-01-09T00:01:12.913Z,2.40
2019-01-09T00:03:42.594Z,2.73
2019-01-09T00:06:14.488Z,1.70
2019-01-09T00:08:44.101Z,1.90
2019-01-09T00:11:13.748Z,2.40
2019-01-09T00:13:43.381Z,1.93
2019-01-09T00:16:13.201Z,1.60
2019-01-09T00:18:42.781Z,2.10
2019-01-09T00:21:12.381Z,1.60
2019-01-09T00:23:41.984Z,1.70
2019-01-09T00:26:13.177Z,1.47
2019-01-09T00:28:42.787Z,1.60
2019-01-09T00:31:14.595Z,1.50
2019-01-09T00:33:44.222Z,1.50
2019-01-09T00:36:13.934Z,1.50
2019-01-09T00:38:45.005Z,1.93
2019-01-09T00:41:14.661Z,1.83
2019-01-09T00:43:44.417Z,1.23
2019-01-09T00:46:13.998Z,1.77
2019-01-09T00:48:43.715Z,1.73
2019-01-09T00:51:13.348Z,1.50
2019-01-09T00:53:42.999Z,1.40
2019-01-09T00:56:12.619Z,1.30
2019-01-09T00:58:42.253Z,1.80
2019-01-09T01:01:11.963Z,1.83
2019-01-09T01:04:24.189Z,2.47
2019-01-09T01:07:16.478Z,2.63
2019-01-09T01:10:38.036Z,2.30
2019-01-09T01:13:50.673Z,2.40
2019-01-09T01:17:12.152Z,2.33
2019-01-09T01:20:11.963Z,2.03
2019-01-09T01:23:28.686Z,2.47
2019-01-09T01:26:22.904Z,2.40
2019-01-09T01:29:26.336Z,1.80
2019-01-09T01:32:39.941Z,2.37
2019-01-09T01:35:39.837Z,2.30
2019-01-09T01:38:52.224Z,2.63
2019-01-09T01:41:56.028Z,1.97
2019-01-09T01:44:42.360Z,2.40
2019-01-09T01:47:58.562Z,2.23
2019-01-09T01:51:04.637Z,2.17
2019-01-09T01:54:12.969Z,2.03
2019-01-09T01:57:08.562Z,2.13
2019-01-09T01:59:50.430Z,2.60
2019-01-09T02:03:05.382Z,2.30
2019-01-09T02:06:06.398Z,2.30
2019-01-09T02:09:11.674Z,1.83
2019-01-09T02:12:12.508Z,2.43
2019-01-09T02:15:17.633Z,1.97
2019-01-09T02:18:15.468Z,2.03
2019-01-09T02:21:21.116Z,1.90
2019-01-09T02:24:40.782Z,1.73
2019-01-09T02:27:35.438Z,2.20
2019-01-09T02:31:07.138Z,2.17
2019-01-09T02:33:36.695Z,1.70
2019-01-09T02:36:13.334Z,1.60
2019-01-09T02:38:37.640Z,1.90
2019-01-09T02:41:07.234Z,1.93
2019-01-09T02:43:36.827Z,2.67
2019-01-09T02:46:08.314Z,2.00
2019-01-09T02:48:37.833Z,2.10
2019-01-09T02:51:09.918Z,2.00
2019-01-09T02:53:39.532Z,2.00
2019-01-09T02:56:09.035Z,1.87
2019-01-09T02:58:39.557Z,1.40
2019-01-09T03:01:09.142Z,2.10
2019-01-09T03:03:38.781Z,2.00
2019-01-09T03:06:08.437Z,1.33
2019-01-09T03:08:38.045Z,1.37
2019-01-09T03:11:07.646Z,1.53
2019-01-09T03:13:37.164Z,2.10
2019-01-09T03:16:06.863Z,2.17
2019-01-09T03:18:36.476Z,1.80
2019-01-09T03:21:06.040Z,1.70
2019-01-09T03:23:35.660Z,1.50
2019-01-09T03:26:05.282Z,2.20
2019-01-09T03:28:34.847Z,1.70
2019-01-09T03:31:04.530Z,2.07
2019-01-09T03:33:34.122Z,2.40
2019-01-09T03:36:03.729Z,2.00
2019-01-09T03:38:33.361Z,1.93
2019-01-09T03:41:02.892Z,2.07
2019-01-09T03:43:32.430Z,1.80
2019-01-09T03:46:02.088Z,1.90
2019-01-09T03:48:31.650Z,2.33
2019-01-09T03:51:01.274Z,1.90
2019-01-09T03:53:31.856Z,1.87
2019-01-09T03:56:01.415Z,1.60
2019-01-09T03:58:30.947Z,2.10
2019-01-09T04:01:00.911Z,1.80
2019-01-09T04:03:30.403Z,1.70
2019-01-09T04:05:59.898Z,2.00
2019-01-09T04:08:29.555Z,1.90
2019-01-09T04:10:59.075Z,1.70
2019-01-09T04:13:28.662Z,2.03
2019-01-09T04:15:58.423Z,1.90
2019-01-09T04:18:28.032Z,2.20
2019-01-09T04:20:57.586Z,1.90
2019-01-09T04:23:27.211Z,1.97
2019-01-09T04:25:56.825Z,1.90
2019-01-09T04:28:28.143Z,1.83
2019-01-09T04:30:57.746Z,1.87
2019-01-09T04:33:27.354Z,1.90
2019-01-09T04:35:56.951Z,2.27
2019-01-09T04:38:26.603Z,1.97
2019-01-09T04:40:56.162Z,1.70
2019-01-09T04:43:25.714Z,1.50
2019-01-09T04:45:55.318Z,1.80
2019-01-09T04:48:24.904Z,1.60
2019-01-09T04:50:54.462Z,1.90
2019-01-09T04:53:24.084Z,1.67
2019-01-09T04:55:53.703Z,1.60
2019-01-09T04:58:23.293Z,1.80
2019-01-09T05:00:52.930Z,1.90
2019-01-09T05:03:22.419Z,1.83
2019-01-09T05:05:52.006Z,1.60
2019-01-09T05:08:21.662Z,1.77
2019-01-09T05:10:51.242Z,1.60
2019-01-09T05:13:20.798Z,1.90
2019-01-09T05:15:50.422Z,1.53
2019-01-09T05:18:20.022Z,1.80
2019-01-09T05:20:49.610Z,2.13
2019-01-09T05:23:19.226Z,2.20
2019-01-09T05:25:48.858Z,2.20
2019-01-09T05:28:18.355Z,2.17
2019-01-09T05:30:47.988Z,1.87
2019-01-09T05:33:17.655Z,1.70
2019-01-09T05:35:47.261Z,2.03
2019-01-09T05:38:16.961Z,2.40
2019-01-09T05:40:46.543Z,2.63
2019-01-09T05:43:16.337Z,35.70
2019-01-09T05:45:45.968Z,1.40
2019-01-09T05:48:15.523Z,1.60
2019-01-09T05:50:45.079Z,2.00
2019-01-09T05:53:14.605Z,2.40
2019-01-09T05:55:44.193Z,2.70
2019-01-09T05:58:13.786Z,2.10
2019-01-09T06:00:43.406Z,2.50
2019-01-09T06:03:13.010Z,2.70
2019-01-09T06:05:42.600Z,2.77
2019-01-09T06:08:13.057Z,2.07
2019-01-09T06:10:42.684Z,2.50
2019-01-09T06:13:12.195Z,2.40
2019-01-09T06:15:41.790Z,2.13
2019-01-09T06:18:11.370Z,2.00
2019-01-09T06:20:41.004Z,1.67
2019-01-09T06:23:10.664Z,1.83
2019-01-09T06:25:40.206Z,2.30
2019-01-09T06:28:09.767Z,1.67
2019-01-09T06:30:39.363Z,4.03
2019-01-09T06:33:10.023Z,3.87
2019-01-09T06:35:39.760Z,5.33
2019-01-09T06:38:09.371Z,2.60
2019-01-09T06:40:38.986Z,2.17
2019-01-09T06:43:08.614Z,2.40
2019-01-09T06:45:38.249Z,23.80
2019-01-09T06:48:07.850Z,2.67
2019-01-09T06:50:37.442Z,2.20
2019-01-09T06:53:07.117Z,2.60
2019-01-09T06:55:36.646Z,1.90
2019-01-09T06:58:06.296Z,2.63
2019-01-09T07:00:35.936Z,3.10
2019-01-09T07:03:05.574Z,22.70
2019-01-09T07:05:35.131Z,5.40
2019-01-09T07:08:04.658Z,2.53
2019-01-09T07:10:34.223Z,2.10
2019-01-09T07:13:03.805Z,3.23
2019-01-09T07:15:33.484Z,3.80
2019-01-09T07:18:03.124Z,3.47
2019-01-09T07:20:32.683Z,41.90
2019-01-09T07:23:02.327Z,4.43
2019-01-09T07:25:31.911Z,3.50
2019-01-09T07:28:01.517Z,4.80
2019-01-09T07:30:31.142Z,3.80
2019-01-09T07:33:00.739Z,14.97
2019-01-09T07:35:30.251Z,4.60
2019-01-09T07:37:59.878Z,4.43
2019-01-09T07:40:29.416Z,4.00
2019-01-09T07:42:58.982Z,3.83
2019-01-09T07:45:28.589Z,4.67
2019-01-09T07:47:58.189Z,3.93
2019-01-09T07:50:27.756Z,4.70
2019-01-09T07:52:57.382Z,7.43
2019-01-09T07:55:26.975Z,7.60
2019-01-09T07:57:56.525Z,5.37
2019-01-09T08:00:26.234Z,4.83
2019-01-09T08:02:58.008Z,4.63
2019-01-09T08:05:27.663Z,4.03
2019-01-09T08:07:57.318Z,4.40
2019-01-09T08:10:26.929Z,4.93
2019-01-09T08:12:56.607Z,4.10
2019-01-09T08:15:26.300Z,18.83
2019-01-09T08:17:58.916Z,5.67
2019-01-09T08:20:39.221Z,5.77
2019-01-09T08:23:08.798Z,10.60
2019-01-09T08:25:38.419Z,7.93
2019-01-09T08:28:08.026Z,5.67
2019-01-09T08:30:37.623Z,8.57
2019-01-09T08:33:07.199Z,6.60
2019-01-09T08:35:37.897Z,6.70
2019-01-09T08:38:09.093Z,5.73
2019-01-09T08:40:39.039Z,6.33
2019-01-09T08:43:11.345Z,5.40
2019-01-09T08:45:40.977Z,5.03
2019-01-09T08:48:12.946Z,5.30
2019-01-09T08:50:42.798Z,4.73
2019-01-09T08:53:12.406Z,5.57
2019-01-09T08:55:49.339Z,5.30
2019-01-09T08:58:19.008Z,4.70
2019-01-09T09:00:48.598Z,7.07
2019-01-09T09:03:20.786Z,5.60
2019-01-09T09:05:50.514Z,5.57
2019-01-09T09:08:20.534Z,5.27
2019-01-09T09:10:50.158Z,5.03
2019-01-09T09:13:44.782Z,29.40
2019-01-09T09:16:14.406Z,5.53
2019-01-09T09:18:44.007Z,5.20
2019-01-09T09:21:13.623Z,5.33
2019-01-09T09:23:43.180Z,5.33
2019-01-09T09:26:12.682Z,5.60
2019-01-09T09:28:42.154Z,5.27
2019-01-09T09:31:11.645Z,5.50
2019-01-09T09:33:41.146Z,6.57
2019-01-09T09:36:10.659Z,6.07
2019-01-09T09:39:02.110Z,5.77
2019-01-09T09:41:29.191Z,5.83
2019-01-09T09:43:58.796Z,5.63
2019-01-09T09:46:28.482Z,6.70
2019-01-09T09:48:58.049Z,5.70
2019-01-09T09:51:27.658Z,6.00
2019-01-09T09:53:57.214Z,12.13
2019-01-09T09:56:26.862Z,6.43
2019-01-09T09:58:56.488Z,6.03
2019-01-09T10:01:26.009Z,6.03
2019-01-09T10:03:55.870Z,5.57
2019-01-09T10:06:25.516Z,4.73
2019-01-09T10:08:55.150Z,5.53
2019-01-09T10:11:24.710Z,5.10
2019-01-09T10:13:54.311Z,4.70
2019-01-09T10:16:23.922Z,8.87
2019-01-09T10:18:53.468Z,5.60
2019-01-09T10:21:23.070Z,5.30
2019-01-09T10:23:57.168Z,9.00
2019-01-09T10:26:26.800Z,6.33
2019-01-09T10:28:56.305Z,5.10
2019-01-09T10:31:25.859Z,3.50
2019-01-09T10:33:55.464Z,6.13
2019-01-09T10:36:25.054Z,10.03
2019-01-09T10:38:54.696Z,6.30
2019-01-09T10:41:24.418Z,5.67
2019-01-09T10:43:54.158Z,5.23
2019-01-09T10:46:23.732Z,5.80
2019-01-09T10:48:53.320Z,4.40
2019-01-09T10:51:22.932Z,5.80
2019-01-09T10:53:52.550Z,7.33
2019-01-09T10:56:22.242Z,4.97
2019-01-09T10:58:51.869Z,11.63
2019-01-09T11:01:23.485Z,4.60
2019-01-09T11:03:53.079Z,10.80
2019-01-09T11:06:22.648Z,4.57
2019-01-09T11:08:52.190Z,3.67
2019-01-09T11:11:21.813Z,4.30
2019-01-09T11:13:51.410Z,4.03
2019-01-09T11:16:21.026Z,3.17
2019-01-09T11:18:50.603Z,4.30
2019-01-09T11:21:21.263Z,3.60
2019-01-09T11:23:50.763Z,3.63
2019-01-09T11:26:20.374Z,3.63
2019-01-09T11:28:49.982Z,4.30
2019-01-09T11:31:19.531Z,3.93
2019-01-09T11:33:49.149Z,3.07
2019-01-09T11:36:18.737Z,4.33
2019-01-09T11:38:55.686Z,3.57
2019-01-09T11:41:19.402Z,3.10
2019-01-09T11:43:49.018Z,3.17
2019-01-09T11:46:18.574Z,3.27
2019-01-09T11:48:48.148Z,7.87
2019-01-09T11:51:17.646Z,4.97
2019-01-09T11:53:47.191Z,3.70
2019-01-09T11:56:16.904Z,4.37
2019-01-09T11:58:46.618Z,3.30
2019-01-09T12:01:16.171Z,3.00
2019-01-09T12:03:45.821Z,3.00
2019-01-09T12:06:15.443Z,2.93
2019-01-09T12:08:45.030Z,3.33
2019-01-09T12:11:14.645Z,3.10
2019-01-09T12:13:44.279Z,2.67
2019-01-09T12:16:14.144Z,3.07
2019-01-09T12:18:43.722Z,3.40
2019-01-09T12:21:16.736Z,3.50
2019-01-09T12:23:44.890Z,3.20
2019-01-09T12:26:15.934Z,2.97
2019-01-09T12:28:53.383Z,3.93
2019-01-09T12:31:16.678Z,3.83
2019-01-09T12:33:46.342Z,3.23
2019-01-09T12:36:16.034Z,17.67
2019-01-09T12:38:48.192Z,3.57
2019-01-09T12:41:17.789Z,4.23
2019-01-09T12:43:54.854Z,3.93
2019-01-09T12:46:24.671Z,4.00
2019-01-09T12:48:58.922Z,4.80
2019-01-09T12:51:28.706Z,3.77
2019-01-09T12:53:58.391Z,5.47
2019-01-09T12:56:28.034Z,4.10
2019-01-09T12:58:57.625Z,5.33
2019-01-09T13:01:27.167Z,4.33
2019-01-09T13:03:56.771Z,4.77
2019-01-09T13:06:26.430Z,5.50
2019-01-09T13:08:56.039Z,4.87
2019-01-09T13:11:28.764Z,4.97
2019-01-09T13:13:58.397Z,5.87
2019-01-09T13:16:27.975Z,5.87
2019-01-09T13:18:57.593Z,5.20
2019-01-09T13:21:27.190Z,5.53
2019-01-09T13:23:56.849Z,5.67
2019-01-09T13:26:26.521Z,4.47
2019-01-09T13:28:56.084Z,3.43
2019-01-09T13:31:25.704Z,3.50
2019-01-09T13:33:55.227Z,3.13
2019-01-09T13:36:24.745Z,3.77
2019-01-09T13:38:54.290Z,4.40
2019-01-09T13:41:24.144Z,4.60
2019-01-09T13:43:53.786Z,4.33
2019-01-09T13:46:23.438Z,5.03
2019-01-09T13:48:53.032Z,5.07
2019-01-09T13:51:22.593Z,5.20
2019-01-09T13:53:52.180Z,5.60
2019-01-09T13:56:21.812Z,6.47
2019-01-09T13:58:51.440Z,14.23
2019-01-09T14:01:21.027Z,14.73
2019-01-09T14:03:50.570Z,8.20
2019-01-09T14:06:20.186Z,21.47
2019-01-09T14:08:49.840Z,20.23
2019-01-09T14:11:19.362Z,18.17
2019-01-09T14:13:48.983Z,11.33
2019-01-09T14:16:18.624Z,11.13
2019-01-09T14:18:55.157Z,12.67
2019-01-09T14:21:19.415Z,10.83
2019-01-09T14:23:49.024Z,9.93
2019-01-09T14:26:18.628Z,14.50
2019-01-09T14:28:48.191Z,10.80
2019-01-09T14:31:20.766Z,14.67
2019-01-09T14:33:50.370Z,19.40
2019-01-09T14:36:19.914Z,21.40
2019-01-09T14:38:49.422Z,12.33
2019-01-09T14:41:19.929Z,18.23
2019-01-09T14:43:49.834Z,9.93
2019-01-09T14:46:19.350Z,15.23
2019-01-09T14:48:48.968Z,18.63
2019-01-09T14:51:18.702Z,15.43
2019-01-09T14:53:48.613Z,10.50
2019-01-09T14:56:18.168Z,16.27
2019-01-09T14:58:47.822Z,22.00
2019-01-09T15:01:17.524Z,15.50
2019-01-09T15:03:47.072Z,13.67
2019-01-09T15:06:16.651Z,17.57
2019-01-09T15:08:46.239Z,11.90
2019-01-09T15:11:15.785Z,11.53
2019-01-09T15:13:45.385Z,15.07
2019-01-09T15:16:15.127Z,11.70
2019-01-09T15:18:44.806Z,10.90
2019-01-09T15:21:14.327Z,9.73
2019-01-09T15:23:45.171Z,9.87
2019-01-09T15:26:14.786Z,9.57
2019-01-09T15:28:44.380Z,9.93
2019-01-09T15:31:14.083Z,10.97
2019-01-09T15:33:43.763Z,10.57
2019-01-09T15:36:19.957Z,12.23
2019-01-09T15:38:55.663Z,10.70
2019-01-09T15:41:25.447Z,11.13
2019-01-09T15:43:54.917Z,17.90
2019-01-09T15:46:24.396Z,11.73
2019-01-09T15:48:53.905Z,12.60
2019-01-09T15:51:23.330Z,12.57
2019-01-09T15:53:52.882Z,12.57
2019-01-09T15:56:22.561Z,12.47
2019-01-09T15:58:53.055Z,15.07
2019-01-09T16:01:29.797Z,17.23
2019-01-09T16:04:08.632Z,15.53
2019-01-09T16:06:38.338Z,17.70
2019-01-09T16:09:09.611Z,19.83
2019-01-09T16:11:40.195Z,23.43
2019-01-09T16:14:09.874Z,25.43
2019-01-09T16:16:39.480Z,24.07
2019-01-09T16:19:09.135Z,17.67
2019-01-09T16:21:38.806Z,18.67
2019-01-09T16:24:08.469Z,18.63
2019-01-09T16:26:38.109Z,16.90
2019-01-09T16:29:07.996Z,20.63
2019-01-09T16:31:39.987Z,17.37
2019-01-09T16:34:09.774Z,18.30
2019-01-09T16:36:39.444Z,16.00
2019-01-09T16:39:10.749Z,16.03
2019-01-09T16:41:40.374Z,18.87
2019-01-09T16:44:10.038Z,18.20
2019-01-09T16:46:39.817Z,18.00
2019-01-09T16:49:09.500Z,18.30
2019-01-09T16:51:39.122Z,17.00
2019-01-09T16:54:09.940Z,19.43
2019-01-09T16:56:39.596Z,18.67
2019-01-09T16:59:09.251Z,17.87
2019-01-09T17:01:38.819Z,19.10
2019-01-09T17:04:21.239Z,18.57
2019-01-09T17:06:50.770Z,17.33
2019-01-09T17:09:20.686Z,17.13
2019-01-09T17:11:50.305Z,16.33
2019-01-09T17:14:19.836Z,15.50
2019-01-09T17:16:49.504Z,106.20
2019-01-09T17:19:23.407Z,14.93
2019-01-09T17:21:53.073Z,14.40
2019-01-09T17:24:22.719Z,14.50
2019-01-09T17:26:52.354Z,15.50
2019-01-09T17:29:22.256Z,13.83
2019-01-09T17:31:51.894Z,14.07
2019-01-09T17:34:21.657Z,13.73
2019-01-09T17:36:51.234Z,13.07
2019-01-09T17:39:20.861Z,14.73
2019-01-09T17:41:50.538Z,16.00
2019-01-09T17:44:20.119Z,15.07
2019-01-09T17:46:49.690Z,15.77
2019-01-09T17:49:19.304Z,17.37
2019-01-09T17:51:49.184Z,18.40
2019-01-09T17:54:18.689Z,18.83
2019-01-09T17:56:48.357Z,21.07
2019-01-09T17:59:17.962Z,18.03
2019-01-09T18:01:47.618Z,21.73
2019-01-09T18:04:19.421Z,19.63
2019-01-09T18:06:49.003Z,20.70
2019-01-09T18:09:21.474Z,22.97
2019-01-09T18:11:51.175Z,23.07
2019-01-09T18:14:20.715Z,23.33
2019-01-09T18:16:50.322Z,23.20
2019-01-09T18:19:19.958Z,23.33
2019-01-09T18:21:49.571Z,23.27
2019-01-09T18:24:19.218Z,24.27
2019-01-09T18:26:48.865Z,25.47
2019-01-09T18:29:18.543Z,22.83
2019-01-09T18:32:32.541Z,25.00
2019-01-09T18:35:34.069Z,26.00
2019-01-09T18:38:31.699Z,25.87
2019-01-09T18:41:24.707Z,27.13
2019-01-09T18:44:15.180Z,28.93
2019-01-09T18:47:17.770Z,29.60
2019-01-09T18:50:27.929Z,26.87
2019-01-09T18:53:09.196Z,29.07
2019-01-09T18:55:39.317Z,28.77
2019-01-09T18:58:08.965Z,30.13
2019-01-09T19:00:38.634Z,30.53
2019-01-09T19:03:08.281Z,31.07
2019-01-09T19:05:38.016Z,32.40
2019-01-09T19:08:08.195Z,27.80
2019-01-09T19:10:37.819Z,29.57
2019-01-09T19:13:07.443Z,31.07
2019-01-09T19:15:37.060Z,27.90
2019-01-09T19:18:06.641Z,25.17
2019-01-09T19:20:36.654Z,26.27
2019-01-09T19:23:07.698Z,27.77
2019-01-09T19:25:37.326Z,26.77
2019-01-09T19:28:06.945Z,26.13
2019-01-09T19:30:36.559Z,28.97
2019-01-09T19:33:06.228Z,28.33
2019-01-09T19:35:35.848Z,27.10
2019-01-09T19:38:05.624Z,28.27
2019-01-09T19:40:37.420Z,27.30
2019-01-09T19:43:07.186Z,27.13
2019-01-09T19:45:36.768Z,29.30
2019-01-09T19:48:06.826Z,29.27
2019-01-09T19:50:42.586Z,25.77
2019-01-09T19:53:10.801Z,26.37
2019-01-09T19:55:40.375Z,28.30
2019-01-09T19:58:10.014Z,26.07
2019-01-09T20:00:42.427Z,24.37
2019-01-09T20:03:12.099Z,28.37
2019-01-09T20:05:41.734Z,26.80
2019-01-09T20:08:11.422Z,23.50
2019-01-09T20:10:41.014Z,23.90
2019-01-09T20:13:10.696Z,23.10
2019-01-09T20:15:40.282Z,25.07
2019-01-09T20:18:09.882Z,23.07
2019-01-09T20:20:39.554Z,23.50
2019-01-09T20:23:09.436Z,22.17
2019-01-09T20:25:38.986Z,21.60
2019-01-09T20:28:08.646Z,20.77
2019-01-09T20:30:38.352Z,20.00
2019-01-09T20:33:07.962Z,20.27
2019-01-09T20:35:37.570Z,20.20
2019-01-09T20:38:07.223Z,22.80
2019-01-09T20:40:36.969Z,19.73
2019-01-09T20:43:06.589Z,22.20
2019-01-09T20:45:36.236Z,24.23
2019-01-09T20:48:06.082Z,24.03
2019-01-09T20:50:35.954Z,22.73
2019-01-09T20:53:05.697Z,24.63
2019-01-09T20:55:37.690Z,23.80
2019-01-09T20:58:07.410Z,23.83
2019-01-09T21:00:37.191Z,23.60
2019-01-09T21:03:09.425Z,25.00
2019-01-09T21:05:44.709Z,25.30
2019-01-09T21:08:14.447Z,24.27
2019-01-09T21:10:44.026Z,23.37
2019-01-09T21:13:13.680Z,49.17
2019-01-09T21:15:43.387Z,27.30
2019-01-09T21:18:13.125Z,26.67
2019-01-09T21:20:42.712Z,25.53
2019-01-09T21:23:12.412Z,27.10
2019-01-09T21:25:42.031Z,25.97
2019-01-09T21:28:11.840Z,27.80
2019-01-09T21:30:41.436Z,43.93
2019-01-09T21:33:11.074Z,26.73
2019-01-09T21:35:40.714Z,30.83
2019-01-09T21:38:10.247Z,30.07
2019-01-09T21:40:39.840Z,31.83
2019-01-09T21:43:09.465Z,33.13
2019-01-09T21:45:39.109Z,32.27
2019-01-09T21:48:08.633Z,34.83
2019-01-09T21:50:38.190Z,35.43
2019-01-09T21:53:07.711Z,35.50
2019-01-09T21:55:37.231Z,54.23
2019-01-09T21:58:06.939Z,37.27
2019-01-09T22:00:36.645Z,37.30
2019-01-09T22:03:06.230Z,36.17
2019-01-09T22:05:35.914Z,32.43
2019-01-09T22:08:05.507Z,36.30
2019-01-09T22:10:36.828Z,37.03
2019-01-09T22:13:07.934Z,31.10
2019-01-09T22:15:37.550Z,32.80
2019-01-09T22:18:07.138Z,31.97
2019-01-09T22:20:38.615Z,31.93
2019-01-09T22:23:08.134Z,35.10
2019-01-09T22:25:37.729Z,28.23
2019-01-09T22:28:07.407Z,29.13
2019-01-09T22:30:36.972Z,26.33
2019-01-09T22:33:06.561Z,25.30
2019-01-09T22:35:41.414Z,29.80
2019-01-09T22:38:07.552Z,28.27
2019-01-09T22:40:37.207Z,29.10
2019-01-09T22:43:06.818Z,29.97
2019-01-09T22:45:36.433Z,28.60
2019-01-09T22:48:06.087Z,28.20
2019-01-09T22:50:35.726Z,26.23
2019-01-09T22:53:05.470Z,27.50
2019-01-09T22:55:35.078Z,29.67
2019-01-09T22:58:04.767Z,29.10
2019-01-09T23:00:45.779Z,31.17
2019-01-09T23:03:15.990Z,30.83
2019-01-09T23:05:45.501Z,30.53
2019-01-09T23:08:15.025Z,31.40
2019-01-09T23:10:44.691Z,31.90
2019-01-09T23:13:14.298Z,30.43
2019-01-09T23:15:43.939Z,32.80
2019-01-09T23:18:13.684Z,33.37
2019-01-09T23:20:43.267Z,32.50
2019-01-09T23:23:12.922Z,34.97
2019-01-09T23:25:42.652Z,34.20
2019-01-09T23:28:12.419Z,35.10
2019-01-09T23:30:42.094Z,33.83
2019-01-09T23:33:11.710Z,33.83
2019-01-09T23:35:41.238Z,34.60
2019-01-09T23:38:10.753Z,39.73
2019-01-09T23:40:40.411Z,38.63
2019-01-09T23:43:10.074Z,41.77
2019-01-09T23:45:39.675Z,43.10
2019-01-09T23:48:09.310Z,45.23
2019-01-09T23:50:38.930Z,43.70
2019-01-09T23:53:08.486Z,47.13
2019-01-09T23:55:38.054Z,48.77
2019-01-09T23:58:07.674Z,51.27
